Nanjemoy, Maryland
Current Conditions -  °F | °C
As of 2:56 PM on Wednesday 28 Jan 2015 (Local Time) from KNYG Reporting Station
Clear Clear  
Wind Chill: 29°   Ceiling: Unl
Heat Index: 38°   Visibility: 10mi
Dew Point:   Wind: 16mph
Humidity: 27%   Direction: 340°NNW
Pressure: 30.25"   Gusts: 25mph
Location:  38.45°N, 77.22°W
Report Text: KNYG 281956Z 34014G22KT 10SM CLR 03/M14 A3025 RMK AO2 SLP245 T00331144 $
Loading
Personal Weather Stations






























Interactive Weather Map New forecast layout! Learn more

10-Day Weather Forecast

Advertisements
Track Severe Weather on mobile